sensor_id;sensor_type;location;lat;lon;timestamp;P1;durP1;ratioP1;P2;durP2;ratioP2
8048;SDS011;20935;42.660;23.342;2023-12-22T00:00:40;26.97;;;19.27;;
8048;SDS011;20935;42.660;23.342;2023-12-22T00:03:26;31.60;;;21.20;;
8048;SDS011;20935;42.660;23.342;2023-12-22T00:06:16;32.17;;;20.83;;
8048;SDS011;20935;42.660;23.342;2023-12-22T00:09:03;31.90;;;21.17;;
8048;SDS011;20935;42.660;23.342;2023-12-22T00:11:51;31.47;;;21.40;;
8048;SDS011;20935;42.660;23.342;2023-12-22T00:14:38;32.57;;;21.17;;
8048;SDS011;20935;42.660;23.342;2023-12-22T00:17:25;32.67;;;21.37;;
8048;SDS011;20935;42.660;23.342;2023-12-22T00:20:12;36.07;;;21.37;;
8048;SDS011;20935;42.660;23.342;2023-12-22T00:22:59;36.47;;;22.70;;
8048;SDS011;20935;42.660;23.342;2023-12-22T00:25:46;31.33;;;20.40;;
8048;SDS011;20935;42.660;23.342;2023-12-22T00:28:34;32.70;;;20.00;;
8048;SDS011;20935;42.660;23.342;2023-12-22T00:31:21;31.03;;;19.13;;
8048;SDS011;20935;42.660;23.342;2023-12-22T00:34:08;29.43;;;17.63;;
8048;SDS011;20935;42.660;23.342;2023-12-22T00:36:55;27.27;;;17.87;;
8048;SDS011;20935;42.660;23.342;2023-12-22T00:39:41;26.57;;;17.07;;
8048;SDS011;20935;42.660;23.342;2023-12-22T00:42:28;22.03;;;14.83;;
8048;SDS011;20935;42.660;23.342;2023-12-22T00:45:16;26.30;;;16.77;;
8048;SDS011;20935;42.660;23.342;2023-12-22T00:48:03;24.80;;;15.20;;
8048;SDS011;20935;42.660;23.342;2023-12-22T00:50:50;21.83;;;15.13;;
8048;SDS011;20935;42.660;23.342;2023-12-22T00:53:37;23.43;;;14.77;;
8048;SDS011;20935;42.660;23.342;2023-12-22T00:56:24;21.93;;;15.63;;
8048;SDS011;20935;42.660;23.342;2023-12-22T00:59:10;20.07;;;13.87;;
8048;SDS011;20935;42.660;23.342;2023-12-22T01:01:59;19.57;;;14.17;;
8048;SDS011;20935;42.660;23.342;2023-12-22T01:04:45;25.83;;;16.80;;
8048;SDS011;20935;42.660;23.342;2023-12-22T01:07:32;24.03;;;15.57;;
8048;SDS011;20935;42.660;23.342;2023-12-22T01:10:19;22.90;;;16.67;;
8048;SDS011;20935;42.660;23.342;2023-12-22T01:13:06;22.20;;;16.40;;
8048;SDS011;20935;42.660;23.342;2023-12-22T01:15:53;23.03;;;16.27;;
8048;SDS011;20935;42.660;23.342;2023-12-22T01:18:41;21.37;;;15.33;;
8048;SDS011;20935;42.660;23.342;2023-12-22T01:21:29;27.97;;;16.30;;
8048;SDS011;20935;42.660;23.342;2023-12-22T01:24:16;22.13;;;16.70;;
8048;SDS011;20935;42.660;23.342;2023-12-22T01:27:03;26.90;;;16.60;;
8048;SDS011;20935;42.660;23.342;2023-12-22T01:29:50;25.37;;;15.50;;
8048;SDS011;20935;42.660;23.342;2023-12-22T01:32:37;22.43;;;16.43;;
8048;SDS011;20935;42.660;23.342;2023-12-22T01:35:25;21.13;;;15.33;;
8048;SDS011;20935;42.660;23.342;2023-12-22T01:38:11;22.93;;;14.07;;
8048;SDS011;20935;42.660;23.342;2023-12-22T01:40:58;22.37;;;14.40;;
8048;SDS011;20935;42.660;23.342;2023-12-22T01:43:45;26.63;;;14.50;;
8048;SDS011;20935;42.660;23.342;2023-12-22T01:46:32;23.03;;;14.83;;
8048;SDS011;20935;42.660;23.342;2023-12-22T01:49:19;23.77;;;15.97;;
8048;SDS011;20935;42.660;23.342;2023-12-22T01:52:08;23.20;;;14.77;;
8048;SDS011;20935;42.660;23.342;2023-12-22T01:54:54;22.77;;;16.13;;
8048;SDS011;20935;42.660;23.342;2023-12-22T01:57:41;22.33;;;14.47;;
8048;SDS011;20935;42.660;23.342;2023-12-22T02:00:28;22.50;;;13.93;;
8048;SDS011;20935;42.660;23.342;2023-12-22T02:03:15;23.27;;;14.43;;
8048;SDS011;20935;42.660;23.342;2023-12-22T02:06:03;20.23;;;14.10;;
8048;SDS011;20935;42.660;23.342;2023-12-22T02:08:51;20.80;;;13.80;;
8048;SDS011;20935;42.660;23.342;2023-12-22T02:11:38;20.13;;;14.43;;
8048;SDS011;20935;42.660;23.342;2023-12-22T02:14:25;24.13;;;16.10;;
8048;SDS011;20935;42.660;23.342;2023-12-22T02:17:14;24.90;;;15.73;;
8048;SDS011;20935;42.660;23.342;2023-12-22T02:20:03;21.87;;;14.93;;
8048;SDS011;20935;42.660;23.342;2023-12-22T02:22:52;21.73;;;14.77;;
8048;SDS011;20935;42.660;23.342;2023-12-22T02:25:39;21.33;;;14.80;;
8048;SDS011;20935;42.660;23.342;2023-12-22T02:28:26;21.67;;;14.63;;
8048;SDS011;20935;42.660;23.342;2023-12-22T02:31:13;21.43;;;14.37;;
8048;SDS011;20935;42.660;23.342;2023-12-22T02:34:03;26.13;;;14.67;;
8048;SDS011;20935;42.660;23.342;2023-12-22T02:36:51;22.80;;;13.77;;
8048;SDS011;20935;42.660;23.342;2023-12-22T02:39:41;25.00;;;14.47;;
8048;SDS011;20935;42.660;23.342;2023-12-22T02:42:29;18.03;;;13.30;;
8048;SDS011;20935;42.660;23.342;2023-12-22T02:45:16;25.03;;;13.80;;
8048;SDS011;20935;42.660;23.342;2023-12-22T02:48:03;20.97;;;14.43;;
8048;SDS011;20935;42.660;23.342;2023-12-22T02:50:50;18.60;;;13.60;;
8048;SDS011;20935;42.660;23.342;2023-12-22T02:53:37;19.97;;;14.10;;
8048;SDS011;20935;42.660;23.342;2023-12-22T02:56:25;21.87;;;14.73;;
8048;SDS011;20935;42.660;23.342;2023-12-22T02:59:12;20.80;;;14.00;;
8048;SDS011;20935;42.660;23.342;2023-12-22T03:01:59;21.00;;;15.23;;
8048;SDS011;20935;42.660;23.342;2023-12-22T03:04:46;19.70;;;14.27;;
8048;SDS011;20935;42.660;23.342;2023-12-22T03:07:32;23.83;;;14.77;;
8048;SDS011;20935;42.660;23.342;2023-12-22T03:10:19;21.50;;;15.03;;
8048;SDS011;20935;42.660;23.342;2023-12-22T03:13:07;20.87;;;15.60;;
8048;SDS011;20935;42.660;23.342;2023-12-22T03:15:54;23.43;;;15.67;;
8048;SDS011;20935;42.660;23.342;2023-12-22T03:18:41;24.53;;;15.23;;
8048;SDS011;20935;42.660;23.342;2023-12-22T03:21:28;24.23;;;15.47;;
8048;SDS011;20935;42.660;23.342;2023-12-22T03:24:14;25.87;;;16.57;;
8048;SDS011;20935;42.660;23.342;2023-12-22T03:27:01;26.60;;;16.67;;
8048;SDS011;20935;42.660;23.342;2023-12-22T03:29:49;25.73;;;16.63;;
8048;SDS011;20935;42.660;23.342;2023-12-22T03:32:36;27.90;;;16.27;;
8048;SDS011;20935;42.660;23.342;2023-12-22T03:35:23;27.37;;;17.87;;
8048;SDS011;20935;42.660;23.342;2023-12-22T03:38:10;30.60;;;17.30;;
8048;SDS011;20935;42.660;23.342;2023-12-22T03:40:57;23.47;;;16.43;;
8048;SDS011;20935;42.660;23.342;2023-12-22T03:43:44;28.43;;;16.90;;
8048;SDS011;20935;42.660;23.342;2023-12-22T03:46:32;26.23;;;16.37;;
8048;SDS011;20935;42.660;23.342;2023-12-22T03:49:22;26.90;;;17.60;;
8048;SDS011;20935;42.660;23.342;2023-12-22T03:52:09;30.50;;;17.07;;
8048;SDS011;20935;42.660;23.342;2023-12-22T03:54:56;25.93;;;15.70;;
8048;SDS011;20935;42.660;23.342;2023-12-22T03:57:42;26.30;;;15.90;;
8048;SDS011;20935;42.660;23.342;2023-12-22T04:00:29;27.93;;;17.93;;
8048;SDS011;20935;42.660;23.342;2023-12-22T04:03:17;22.50;;;15.93;;
8048;SDS011;20935;42.660;23.342;2023-12-22T04:06:04;27.40;;;17.83;;
8048;SDS011;20935;42.660;23.342;2023-12-22T04:08:51;25.57;;;16.83;;
8048;SDS011;20935;42.660;23.342;2023-12-22T04:11:38;28.73;;;18.00;;
8048;SDS011;20935;42.660;23.342;2023-12-22T04:14:26;27.60;;;16.87;;
8048;SDS011;20935;42.660;23.342;2023-12-22T04:17:13;24.10;;;16.00;;
8048;SDS011;20935;42.660;23.342;2023-12-22T04:20:01;24.67;;;16.23;;
8048;SDS011;20935;42.660;23.342;2023-12-22T04:22:48;26.73;;;17.27;;
8048;SDS011;20935;42.660;23.342;2023-12-22T04:25:35;23.03;;;15.70;;
8048;SDS011;20935;42.660;23.342;2023-12-22T04:28:22;25.13;;;17.67;;
8048;SDS011;20935;42.660;23.342;2023-12-22T04:31:08;25.13;;;17.77;;
8048;SDS011;20935;42.660;23.342;2023-12-22T04:33:55;27.70;;;17.23;;
8048;SDS011;20935;42.660;23.342;2023-12-22T04:36:43;25.70;;;16.13;;
8048;SDS011;20935;42.660;23.342;2023-12-22T04:39:32;25.70;;;16.63;;
8048;SDS011;20935;42.660;23.342;2023-12-22T04:42:19;26.33;;;17.30;;
8048;SDS011;20935;42.660;23.342;2023-12-22T04:45:06;23.63;;;17.00;;
8048;SDS011;20935;42.660;23.342;2023-12-22T04:47:52;24.47;;;15.97;;
8048;SDS011;20935;42.660;23.342;2023-12-22T04:50:39;24.53;;;16.43;;
8048;SDS011;20935;42.660;23.342;2023-12-22T04:53:27;24.47;;;16.00;;
8048;SDS011;20935;42.660;23.342;2023-12-22T04:56:14;23.30;;;14.97;;
8048;SDS011;20935;42.660;23.342;2023-12-22T04:59:01;26.20;;;15.07;;
8048;SDS011;20935;42.660;23.342;2023-12-22T05:01:48;24.60;;;17.10;;
8048;SDS011;20935;42.660;23.342;2023-12-22T05:04:35;27.10;;;16.97;;
8048;SDS011;20935;42.660;23.342;2023-12-22T05:07:21;25.50;;;16.60;;
8048;SDS011;20935;42.660;23.342;2023-12-22T05:10:10;26.73;;;16.30;;
8048;SDS011;20935;42.660;23.342;2023-12-22T05:12:56;24.60;;;16.33;;
8048;SDS011;20935;42.660;23.342;2023-12-22T05:15:43;26.73;;;15.50;;
8048;SDS011;20935;42.660;23.342;2023-12-22T05:18:30;23.93;;;15.53;;
8048;SDS011;20935;42.660;23.342;2023-12-22T05:21:18;22.63;;;15.73;;
8048;SDS011;20935;42.660;23.342;2023-12-22T05:24:04;25.10;;;15.23;;
8048;SDS011;20935;42.660;23.342;2023-12-22T05:26:53;23.53;;;15.83;;
8048;SDS011;20935;42.660;23.342;2023-12-22T05:29:40;20.67;;;15.37;;
8048;SDS011;20935;42.660;23.342;2023-12-22T05:32:26;25.67;;;15.33;;
8048;SDS011;20935;42.660;23.342;2023-12-22T05:35:13;25.13;;;16.30;;
8048;SDS011;20935;42.660;23.342;2023-12-22T05:38:00;20.67;;;14.47;;
8048;SDS011;20935;42.660;23.342;2023-12-22T05:40:47;22.93;;;15.43;;
8048;SDS011;20935;42.660;23.342;2023-12-22T05:43:35;22.40;;;14.80;;
8048;SDS011;20935;42.660;23.342;2023-12-22T05:46:22;21.00;;;14.10;;
8048;SDS011;20935;42.660;23.342;2023-12-22T05:49:09;24.50;;;15.33;;
8048;SDS011;20935;42.660;23.342;2023-12-22T05:51:55;21.60;;;14.67;;
8048;SDS011;20935;42.660;23.342;2023-12-22T05:54:42;21.50;;;14.57;;
8048;SDS011;20935;42.660;23.342;2023-12-22T05:57:29;22.23;;;14.27;;
8048;SDS011;20935;42.660;23.342;2023-12-22T06:00:17;22.23;;;13.87;;
8048;SDS011;20935;42.660;23.342;2023-12-22T06:03:04;19.83;;;14.50;;
8048;SDS011;20935;42.660;23.342;2023-12-22T06:05:51;20.90;;;13.30;;
8048;SDS011;20935;42.660;23.342;2023-12-22T06:08:38;17.03;;;12.93;;
8048;SDS011;20935;42.660;23.342;2023-12-22T06:11:25;22.63;;;14.60;;
8048;SDS011;20935;42.660;23.342;2023-12-22T06:14:12;22.17;;;13.37;;
8048;SDS011;20935;42.660;23.342;2023-12-22T06:17:00;22.00;;;15.17;;
8048;SDS011;20935;42.660;23.342;2023-12-22T06:19:46;20.80;;;14.27;;
8048;SDS011;20935;42.660;23.342;2023-12-22T06:22:33;24.37;;;14.53;;
8048;SDS011;20935;42.660;23.342;2023-12-22T06:25:20;20.10;;;13.87;;
8048;SDS011;20935;42.660;23.342;2023-12-22T06:28:07;19.70;;;15.47;;
8048;SDS011;20935;42.660;23.342;2023-12-22T06:30:54;20.10;;;14.67;;
8048;SDS011;20935;42.660;23.342;2023-12-22T06:33:42;19.70;;;12.70;;
8048;SDS011;20935;42.660;23.342;2023-12-22T06:36:28;21.93;;;13.90;;
8048;SDS011;20935;42.660;23.342;2023-12-22T06:39:16;19.73;;;14.23;;
8048;SDS011;20935;42.660;23.342;2023-12-22T06:42:05;20.93;;;15.53;;
8048;SDS011;20935;42.660;23.342;2023-12-22T06:44:56;20.57;;;13.93;;
8048;SDS011;20935;42.660;23.342;2023-12-22T06:47:43;19.70;;;14.13;;
8048;SDS011;20935;42.660;23.342;2023-12-22T06:50:32;20.30;;;13.03;;
8048;SDS011;20935;42.660;23.342;2023-12-22T06:53:22;19.23;;;12.33;;
8048;SDS011;20935;42.660;23.342;2023-12-22T06:56:14;17.70;;;13.17;;
8048;SDS011;20935;42.660;23.342;2023-12-22T06:59:01;20.53;;;13.33;;
8048;SDS011;20935;42.660;23.342;2023-12-22T07:01:48;21.53;;;13.33;;
8048;SDS011;20935;42.660;23.342;2023-12-22T07:07:50;16.80;;;12.87;;
8048;SDS011;20935;42.660;23.342;2023-12-22T07:10:37;21.27;;;15.03;;
8048;SDS011;20935;42.660;23.342;2023-12-22T07:13:24;18.43;;;13.43;;
8048;SDS011;20935;42.660;23.342;2023-12-22T07:16:12;22.80;;;14.97;;
8048;SDS011;20935;42.660;23.342;2023-12-22T07:18:58;19.83;;;14.37;;
8048;SDS011;20935;42.660;23.342;2023-12-22T07:21:46;22.10;;;16.53;;
8048;SDS011;20935;42.660;23.342;2023-12-22T07:24:34;25.50;;;15.33;;
8048;SDS011;20935;42.660;23.342;2023-12-22T07:27:21;23.37;;;15.77;;
8048;SDS011;20935;42.660;23.342;2023-12-22T07:30:08;20.20;;;14.43;;
8048;SDS011;20935;42.660;23.342;2023-12-22T07:32:57;21.23;;;14.80;;
8048;SDS011;20935;42.660;23.342;2023-12-22T07:35:43;24.10;;;16.40;;
8048;SDS011;20935;42.660;23.342;2023-12-22T07:38:30;24.13;;;16.27;;
8048;SDS011;20935;42.660;23.342;2023-12-22T07:41:18;29.73;;;16.57;;
8048;SDS011;20935;42.660;23.342;2023-12-22T07:44:05;26.23;;;16.20;;
8048;SDS011;20935;42.660;23.342;2023-12-22T07:46:58;24.37;;;16.10;;
8048;SDS011;20935;42.660;23.342;2023-12-22T07:49:45;24.67;;;16.03;;
8048;SDS011;20935;42.660;23.342;2023-12-22T07:52:35;22.40;;;16.27;;
8048;SDS011;20935;42.660;23.342;2023-12-22T07:55:23;24.50;;;16.23;;
8048;SDS011;20935;42.660;23.342;2023-12-22T07:58:12;21.87;;;16.70;;
8048;SDS011;20935;42.660;23.342;2023-12-22T08:00:59;27.40;;;16.63;;
8048;SDS011;20935;42.660;23.342;2023-12-22T08:03:45;23.60;;;16.50;;
8048;SDS011;20935;42.660;23.342;2023-12-22T08:06:35;22.57;;;15.70;;
8048;SDS011;20935;42.660;23.342;2023-12-22T08:09:22;20.77;;;14.93;;
8048;SDS011;20935;42.660;23.342;2023-12-22T08:12:12;21.80;;;15.50;;
8048;SDS011;20935;42.660;23.342;2023-12-22T08:15:03;23.23;;;15.77;;
8048;SDS011;20935;42.660;23.342;2023-12-22T08:17:50;21.33;;;14.53;;
8048;SDS011;20935;42.660;23.342;2023-12-22T08:20:37;25.47;;;14.87;;
8048;SDS011;20935;42.660;23.342;2023-12-22T08:23:24;19.53;;;14.13;;
8048;SDS011;20935;42.660;23.342;2023-12-22T08:26:10;24.63;;;16.57;;
8048;SDS011;20935;42.660;23.342;2023-12-22T08:28:59;23.87;;;15.70;;
8048;SDS011;20935;42.660;23.342;2023-12-22T08:31:47;26.70;;;17.20;;
8048;SDS011;20935;42.660;23.342;2023-12-22T08:34:34;26.07;;;16.63;;
8048;SDS011;20935;42.660;23.342;2023-12-22T08:37:21;22.77;;;15.47;;
8048;SDS011;20935;42.660;23.342;2023-12-22T08:40:08;26.00;;;17.23;;
8048;SDS011;20935;42.660;23.342;2023-12-22T08:42:55;21.93;;;16.40;;
8048;SDS011;20935;42.660;23.342;2023-12-22T08:45:45;22.77;;;16.83;;
8048;SDS011;20935;42.660;23.342;2023-12-22T08:48:33;19.83;;;15.20;;
8048;SDS011;20935;42.660;23.342;2023-12-22T08:51:19;25.50;;;16.60;;
8048;SDS011;20935;42.660;23.342;2023-12-22T08:54:06;23.20;;;15.77;;
8048;SDS011;20935;42.660;23.342;2023-12-22T08:56:53;23.80;;;17.23;;
8048;SDS011;20935;42.660;23.342;2023-12-22T08:59:40;25.20;;;17.27;;
8048;SDS011;20935;42.660;23.342;2023-12-22T09:02:27;28.20;;;15.97;;
8048;SDS011;20935;42.660;23.342;2023-12-22T09:05:15;24.43;;;18.57;;
8048;SDS011;20935;42.660;23.342;2023-12-22T09:08:03;34.30;;;21.23;;
8048;SDS011;20935;42.660;23.342;2023-12-22T09:10:51;36.70;;;22.07;;
8048;SDS011;20935;42.660;23.342;2023-12-22T09:13:38;34.47;;;22.20;;
8048;SDS011;20935;42.660;23.342;2023-12-22T09:16:24;29.73;;;19.80;;
8048;SDS011;20935;42.660;23.342;2023-12-22T09:19:11;26.70;;;18.57;;
8048;SDS011;20935;42.660;23.342;2023-12-22T09:21:59;26.93;;;19.07;;
8048;SDS011;20935;42.660;23.342;2023-12-22T09:24:46;29.23;;;19.30;;
8048;SDS011;20935;42.660;23.342;2023-12-22T09:27:33;30.63;;;20.50;;
8048;SDS011;20935;42.660;23.342;2023-12-22T09:30:19;27.40;;;18.67;;
8048;SDS011;20935;42.660;23.342;2023-12-22T09:33:07;22.93;;;17.00;;
8048;SDS011;20935;42.660;23.342;2023-12-22T09:35:54;24.43;;;17.60;;
8048;SDS011;20935;42.660;23.342;2023-12-22T09:38:42;22.40;;;17.73;;
8048;SDS011;20935;42.660;23.342;2023-12-22T09:41:29;25.30;;;17.67;;
8048;SDS011;20935;42.660;23.342;2023-12-22T09:44:16;24.63;;;16.83;;
8048;SDS011;20935;42.660;23.342;2023-12-22T09:47:04;28.67;;;17.70;;
8048;SDS011;20935;42.660;23.342;2023-12-22T09:49:52;25.13;;;18.10;;
8048;SDS011;20935;42.660;23.342;2023-12-22T09:52:40;24.10;;;17.20;;
8048;SDS011;20935;42.660;23.342;2023-12-22T09:55:31;25.30;;;16.83;;
8048;SDS011;20935;42.660;23.342;2023-12-22T09:58:19;26.33;;;17.37;;
8048;SDS011;20935;42.660;23.342;2023-12-22T10:01:05;22.33;;;16.33;;
8048;SDS011;20935;42.660;23.342;2023-12-22T10:03:51;25.97;;;17.20;;
8048;SDS011;20935;42.660;23.342;2023-12-22T10:06:36;24.57;;;17.17;;
8048;SDS011;20935;42.660;23.342;2023-12-22T10:09:24;25.03;;;17.53;;
8048;SDS011;20935;42.660;23.342;2023-12-22T10:12:12;29.17;;;17.80;;
8048;SDS011;20935;42.660;23.342;2023-12-22T10:14:57;25.80;;;18.33;;
8048;SDS011;20935;42.660;23.342;2023-12-22T10:17:44;26.43;;;18.10;;
8048;SDS011;20935;42.660;23.342;2023-12-22T10:20:31;27.30;;;19.73;;
8048;SDS011;20935;42.660;23.342;2023-12-22T10:23:17;24.83;;;20.00;;
8048;SDS011;20935;42.660;23.342;2023-12-22T10:26:02;26.57;;;18.67;;
8048;SDS011;20935;42.660;23.342;2023-12-22T10:28:50;26.00;;;18.80;;
8048;SDS011;20935;42.660;23.342;2023-12-22T10:31:39;24.73;;;18.73;;
8048;SDS011;20935;42.660;23.342;2023-12-22T10:34:24;26.23;;;18.53;;
8048;SDS011;20935;42.660;23.342;2023-12-22T10:37:09;28.27;;;21.23;;
8048;SDS011;20935;42.660;23.342;2023-12-22T10:39:56;28.67;;;21.00;;
8048;SDS011;20935;42.660;23.342;2023-12-22T10:42:41;29.07;;;21.17;;
8048;SDS011;20935;42.660;23.342;2023-12-22T10:45:28;33.57;;;20.43;;
8048;SDS011;20935;42.660;23.342;2023-12-22T10:48:14;28.60;;;19.90;;
8048;SDS011;20935;42.660;23.342;2023-12-22T10:51:00;28.90;;;20.67;;
8048;SDS011;20935;42.660;23.342;2023-12-22T10:53:45;31.07;;;20.87;;
8048;SDS011;20935;42.660;23.342;2023-12-22T10:56:30;29.97;;;20.97;;
8048;SDS011;20935;42.660;23.342;2023-12-22T10:59:16;25.23;;;19.23;;
8048;SDS011;20935;42.660;23.342;2023-12-22T11:02:03;31.07;;;19.97;;
8048;SDS011;20935;42.660;23.342;2023-12-22T11:04:52;26.53;;;19.00;;
8048;SDS011;20935;42.660;23.342;2023-12-22T11:07:39;29.30;;;19.23;;
8048;SDS011;20935;42.660;23.342;2023-12-22T11:10:26;26.03;;;18.83;;
8048;SDS011;20935;42.660;23.342;2023-12-22T11:13:12;25.53;;;18.90;;
8048;SDS011;20935;42.660;23.342;2023-12-22T11:15:57;26.60;;;18.77;;
8048;SDS011;20935;42.660;23.342;2023-12-22T11:18:44;28.07;;;19.00;;
8048;SDS011;20935;42.660;23.342;2023-12-22T11:21:30;23.57;;;17.70;;
8048;SDS011;20935;42.660;23.342;2023-12-22T11:24:16;22.47;;;16.40;;
8048;SDS011;20935;42.660;23.342;2023-12-22T11:27:01;15.23;;;12.37;;
8048;SDS011;20935;42.660;23.342;2023-12-22T11:29:47;11.10;;;8.43;;
8048;SDS011;20935;42.660;23.342;2023-12-22T11:32:34;12.00;;;8.47;;
8048;SDS011;20935;42.660;23.342;2023-12-22T11:35:20;11.17;;;8.30;;
8048;SDS011;20935;42.660;23.342;2023-12-22T11:38:06;15.63;;;7.03;;
8048;SDS011;20935;42.660;23.342;2023-12-22T11:40:52;10.03;;;7.93;;
8048;SDS011;20935;42.660;23.342;2023-12-22T11:43:38;10.23;;;8.30;;
8048;SDS011;20935;42.660;23.342;2023-12-22T11:46:23;10.47;;;8.10;;
8048;SDS011;20935;42.660;23.342;2023-12-22T11:49:08;7.50;;;4.53;;
8048;SDS011;20935;42.660;23.342;2023-12-22T11:51:55;5.30;;;3.50;;
8048;SDS011;20935;42.660;23.342;2023-12-22T11:54:44;3.70;;;2.93;;
8048;SDS011;20935;42.660;23.342;2023-12-22T11:57:31;2.57;;;2.37;;
8048;SDS011;20935;42.660;23.342;2023-12-22T12:03:20;3.10;;;2.47;;
8048;SDS011;20935;42.660;23.342;2023-12-22T12:06:15;2.40;;;2.20;;
8048;SDS011;20935;42.660;23.342;2023-12-22T12:09:03;2.00;;;1.80;;
8048;SDS011;20935;42.660;23.342;2023-12-22T12:14:48;2.10;;;2.00;;
8048;SDS011;20935;42.660;23.342;2023-12-22T12:17:39;2.27;;;2.10;;
8048;SDS011;20935;42.660;23.342;2023-12-22T12:20:28;1.87;;;1.77;;
8048;SDS011;20935;42.660;23.342;2023-12-22T12:23:13;1.90;;;1.80;;
8048;SDS011;20935;42.660;23.342;2023-12-22T12:26:01;1.87;;;1.77;;
8048;SDS011;20935;42.660;23.342;2023-12-22T12:28:47;2.10;;;2.00;;
8048;SDS011;20935;42.660;23.342;2023-12-22T12:31:37;2.33;;;1.70;;
8048;SDS011;20935;42.660;23.342;2023-12-22T12:34:22;1.93;;;1.80;;
8048;SDS011;20935;42.660;23.342;2023-12-22T12:37:08;1.80;;;1.70;;
8048;SDS011;20935;42.660;23.342;2023-12-22T12:39:53;2.10;;;1.90;;
8048;SDS011;20935;42.660;23.342;2023-12-22T12:42:44;2.70;;;1.70;;
8048;SDS011;20935;42.660;23.342;2023-12-22T12:45:30;1.73;;;1.63;;
8048;SDS011;20935;42.660;23.342;2023-12-22T12:48:15;2.00;;;1.90;;
8048;SDS011;20935;42.660;23.342;2023-12-22T12:51:01;1.80;;;1.70;;
8048;SDS011;20935;42.660;23.342;2023-12-22T12:53:47;2.20;;;1.70;;
8048;SDS011;20935;42.660;23.342;2023-12-22T12:56:36;2.57;;;1.90;;
8048;SDS011;20935;42.660;23.342;2023-12-22T12:59:26;2.00;;;1.90;;
8048;SDS011;20935;42.660;23.342;2023-12-22T13:02:11;3.00;;;2.47;;
8048;SDS011;20935;42.660;23.342;2023-12-22T13:04:56;3.53;;;2.10;;
8048;SDS011;20935;42.660;23.342;2023-12-22T13:07:43;2.50;;;2.30;;
8048;SDS011;20935;42.660;23.342;2023-12-22T13:10:30;2.40;;;2.20;;
8048;SDS011;20935;42.660;23.342;2023-12-22T13:13:17;4.33;;;2.07;;
8048;SDS011;20935;42.660;23.342;2023-12-22T13:16:05;2.27;;;2.17;;
8048;SDS011;20935;42.660;23.342;2023-12-22T13:18:52;2.17;;;2.00;;
8048;SDS011;20935;42.660;23.342;2023-12-22T13:21:39;2.43;;;2.23;;
8048;SDS011;20935;42.660;23.342;2023-12-22T13:24:26;2.20;;;2.00;;
8048;SDS011;20935;42.660;23.342;2023-12-22T13:27:16;2.80;;;2.60;;
8048;SDS011;20935;42.660;23.342;2023-12-22T13:30:04;2.57;;;2.23;;
8048;SDS011;20935;42.660;23.342;2023-12-22T13:32:54;2.10;;;2.00;;
8048;SDS011;20935;42.660;23.342;2023-12-22T13:35:42;2.43;;;2.23;;
8048;SDS011;20935;42.660;23.342;2023-12-22T13:38:28;2.33;;;2.20;;
8048;SDS011;20935;42.660;23.342;2023-12-22T13:41:15;3.77;;;2.23;;
8048;SDS011;20935;42.660;23.342;2023-12-22T13:44:03;2.40;;;2.20;;
8048;SDS011;20935;42.660;23.342;2023-12-22T13:46:50;2.60;;;2.40;;
8048;SDS011;20935;42.660;23.342;2023-12-22T13:49:38;3.43;;;2.40;;
8048;SDS011;20935;42.660;23.342;2023-12-22T13:52:27;2.17;;;1.97;;
8048;SDS011;20935;42.660;23.342;2023-12-22T13:55:14;2.37;;;2.17;;
8048;SDS011;20935;42.660;23.342;2023-12-22T13:58:01;6.13;;;5.43;;
8048;SDS011;20935;42.660;23.342;2023-12-22T14:00:49;2.17;;;1.97;;
8048;SDS011;20935;42.660;23.342;2023-12-22T14:03:35;5.07;;;2.63;;
8048;SDS011;20935;42.660;23.342;2023-12-22T14:06:24;2.40;;;2.20;;
8048;SDS011;20935;42.660;23.342;2023-12-22T14:09:10;2.13;;;2.03;;
8048;SDS011;20935;42.660;23.342;2023-12-22T14:11:57;2.60;;;2.40;;
8048;SDS011;20935;42.660;23.342;2023-12-22T14:14:44;2.47;;;2.27;;
8048;SDS011;20935;42.660;23.342;2023-12-22T14:17:31;2.93;;;2.63;;
8048;SDS011;20935;42.660;23.342;2023-12-22T14:20:17;2.40;;;2.20;;
8048;SDS011;20935;42.660;23.342;2023-12-22T14:23:06;2.60;;;2.30;;
8048;SDS011;20935;42.660;23.342;2023-12-22T14:25:53;2.43;;;2.23;;
8048;SDS011;20935;42.660;23.342;2023-12-22T14:28:40;1.70;;;1.60;;
8048;SDS011;20935;42.660;23.342;2023-12-22T14:31:27;2.50;;;2.30;;
8048;SDS011;20935;42.660;23.342;2023-12-22T14:34:18;2.40;;;2.20;;
8048;SDS011;20935;42.660;23.342;2023-12-22T14:37:05;2.67;;;2.47;;
8048;SDS011;20935;42.660;23.342;2023-12-22T14:39:53;2.50;;;2.30;;
8048;SDS011;20935;42.660;23.342;2023-12-22T14:42:40;2.43;;;2.23;;
8048;SDS011;20935;42.660;23.342;2023-12-22T14:45:27;3.40;;;2.00;;
8048;SDS011;20935;42.660;23.342;2023-12-22T14:48:14;2.43;;;2.23;;
8048;SDS011;20935;42.660;23.342;2023-12-22T14:51:01;3.03;;;2.40;;
8048;SDS011;20935;42.660;23.342;2023-12-22T14:53:47;3.83;;;2.23;;
8048;SDS011;20935;42.660;23.342;2023-12-22T14:56:37;2.33;;;2.13;;
8048;SDS011;20935;42.660;23.342;2023-12-22T14:59:25;3.73;;;2.37;;
8048;SDS011;20935;42.660;23.342;2023-12-22T15:02:12;2.80;;;2.17;;
8048;SDS011;20935;42.660;23.342;2023-12-22T15:04:59;2.77;;;2.10;;
8048;SDS011;20935;42.660;23.342;2023-12-22T15:07:46;2.40;;;2.20;;
8048;SDS011;20935;42.660;23.342;2023-12-22T15:10:32;2.80;;;2.60;;
8048;SDS011;20935;42.660;23.342;2023-12-22T15:13:20;2.73;;;2.53;;
8048;SDS011;20935;42.660;23.342;2023-12-22T15:16:07;3.07;;;2.20;;
8048;SDS011;20935;42.660;23.342;2023-12-22T15:18:54;1.93;;;1.83;;
8048;SDS011;20935;42.660;23.342;2023-12-22T15:21:41;2.87;;;2.67;;
8048;SDS011;20935;42.660;23.342;2023-12-22T15:24:28;3.60;;;2.40;;
8048;SDS011;20935;42.660;23.342;2023-12-22T15:27:15;2.87;;;2.53;;
8048;SDS011;20935;42.660;23.342;2023-12-22T15:30:03;2.93;;;2.60;;
8048;SDS011;20935;42.660;23.342;2023-12-22T15:32:50;3.13;;;2.17;;
8048;SDS011;20935;42.660;23.342;2023-12-22T15:35:37;3.93;;;2.60;;
8048;SDS011;20935;42.660;23.342;2023-12-22T15:38:23;2.37;;;2.17;;
8048;SDS011;20935;42.660;23.342;2023-12-22T15:41:10;2.63;;;2.33;;
8048;SDS011;20935;42.660;23.342;2023-12-22T15:43:57;3.40;;;2.40;;
8048;SDS011;20935;42.660;23.342;2023-12-22T15:46:45;4.27;;;2.90;;
8048;SDS011;20935;42.660;23.342;2023-12-22T15:49:32;3.93;;;2.40;;
8048;SDS011;20935;42.660;23.342;2023-12-22T15:52:19;5.83;;;2.90;;
8048;SDS011;20935;42.660;23.342;2023-12-22T15:55:06;2.63;;;2.43;;
8048;SDS011;20935;42.660;23.342;2023-12-22T15:57:54;2.90;;;2.47;;
8048;SDS011;20935;42.660;23.342;2023-12-22T16:00:41;4.60;;;3.13;;
8048;SDS011;20935;42.660;23.342;2023-12-22T16:03:29;4.10;;;3.03;;
8048;SDS011;20935;42.660;23.342;2023-12-22T16:06:16;3.27;;;2.77;;
8048;SDS011;20935;42.660;23.342;2023-12-22T16:09:03;5.03;;;3.70;;
8048;SDS011;20935;42.660;23.342;2023-12-22T16:11:50;5.20;;;3.83;;
8048;SDS011;20935;42.660;23.342;2023-12-22T16:14:37;3.37;;;2.40;;
8048;SDS011;20935;42.660;23.342;2023-12-22T16:17:24;2.27;;;2.13;;
8048;SDS011;20935;42.660;23.342;2023-12-22T16:20:16;6.20;;;2.13;;
8048;SDS011;20935;42.660;23.342;2023-12-22T16:23:03;4.50;;;2.40;;
8048;SDS011;20935;42.660;23.342;2023-12-22T16:25:50;3.47;;;2.47;;
8048;SDS011;20935;42.660;23.342;2023-12-22T16:28:37;2.30;;;2.10;;
8048;SDS011;20935;42.660;23.342;2023-12-22T16:31:23;2.30;;;2.10;;
8048;SDS011;20935;42.660;23.342;2023-12-22T16:34:10;2.43;;;2.10;;